sensor_id;sensor_type;location;lat;lon;timestamp;P1;durP1;ratioP1;P2;durP2;ratioP2
5460;SDS011;2753;49.196;8.286;2022-10-20T00:00:10;21.77;;;12.93;;
5460;SDS011;2753;49.196;8.286;2022-10-20T00:02:36;38.53;;;12.93;;
5460;SDS011;2753;49.196;8.286;2022-10-20T00:05:02;21.90;;;12.03;;
5460;SDS011;2753;49.196;8.286;2022-10-20T00:07:28;15.57;;;10.73;;
5460;SDS011;2753;49.196;8.286;2022-10-20T00:09:53;20.80;;;12.77;;
5460;SDS011;2753;49.196;8.286;2022-10-20T00:12:19;17.60;;;11.90;;
5460;SDS011;2753;49.196;8.286;2022-10-20T00:14:45;18.13;;;11.57;;
5460;SDS011;2753;49.196;8.286;2022-10-20T00:17:10;30.27;;;12.10;;
5460;SDS011;2753;49.196;8.286;2022-10-20T00:19:36;17.93;;;11.13;;
5460;SDS011;2753;49.196;8.286;2022-10-20T00:22:01;26.30;;;13.10;;
5460;SDS011;2753;49.196;8.286;2022-10-20T00:24:27;19.80;;;12.13;;
5460;SDS011;2753;49.196;8.286;2022-10-20T00:26:53;25.80;;;12.80;;
5460;SDS011;2753;49.196;8.286;2022-10-20T00:29:19;19.33;;;12.63;;
5460;SDS011;2753;49.196;8.286;2022-10-20T00:31:44;18.87;;;12.40;;
5460;SDS011;2753;49.196;8.286;2022-10-20T00:34:10;16.30;;;11.70;;
5460;SDS011;2753;49.196;8.286;2022-10-20T00:36:36;20.13;;;12.30;;
5460;SDS011;2753;49.196;8.286;2022-10-20T00:39:03;17.60;;;11.10;;
5460;SDS011;2753;49.196;8.286;2022-10-20T00:41:30;16.63;;;11.50;;
5460;SDS011;2753;49.196;8.286;2022-10-20T00:46:37;21.00;;;11.80;;
5460;SDS011;2753;49.196;8.286;2022-10-20T00:49:15;20.80;;;11.60;;
5460;SDS011;2753;49.196;8.286;2022-10-20T00:51:45;27.40;;;12.13;;
5460;SDS011;2753;49.196;8.286;2022-10-20T00:54:16;20.43;;;11.60;;
5460;SDS011;2753;49.196;8.286;2022-10-20T00:56:45;18.10;;;10.80;;
5460;SDS011;2753;49.196;8.286;2022-10-20T00:59:13;16.90;;;10.87;;
5460;SDS011;2753;49.196;8.286;2022-10-20T01:01:42;20.67;;;11.50;;
5460;SDS011;2753;49.196;8.286;2022-10-20T01:04:09;21.47;;;11.40;;
5460;SDS011;2753;49.196;8.286;2022-10-20T01:06:35;16.40;;;11.60;;
5460;SDS011;2753;49.196;8.286;2022-10-20T01:09:02;19.47;;;11.30;;
5460;SDS011;2753;49.196;8.286;2022-10-20T01:25:30;16.20;;;10.63;;
5460;SDS011;2753;49.196;8.286;2022-10-20T01:28:11;24.47;;;12.20;;
5460;SDS011;2753;49.196;8.286;2022-10-20T01:30:40;20.70;;;10.53;;
5460;SDS011;2753;49.196;8.286;2022-10-20T01:36:23;20.80;;;11.27;;
5460;SDS011;2753;49.196;8.286;2022-10-20T01:41:35;20.67;;;10.27;;
5460;SDS011;2753;49.196;8.286;2022-10-20T01:44:11;17.63;;;12.23;;
5460;SDS011;2753;49.196;8.286;2022-10-20T01:46:40;15.17;;;10.07;;
5460;SDS011;2753;49.196;8.286;2022-10-20T01:49:08;15.13;;;10.47;;
5460;SDS011;2753;49.196;8.286;2022-10-20T01:51:35;15.70;;;10.40;;
5460;SDS011;2753;49.196;8.286;2022-10-20T01:54:01;20.33;;;11.00;;
5460;SDS011;2753;49.196;8.286;2022-10-20T01:56:38;19.93;;;11.40;;
5460;SDS011;2753;49.196;8.286;2022-10-20T02:10:51;16.33;;;9.80;;
5460;SDS011;2753;49.196;8.286;2022-10-20T02:13:20;13.40;;;9.27;;
5460;SDS011;2753;49.196;8.286;2022-10-20T02:15:50;21.87;;;11.53;;
5460;SDS011;2753;49.196;8.286;2022-10-20T02:18:25;16.93;;;10.40;;
5460;SDS011;2753;49.196;8.286;2022-10-20T02:20:55;16.23;;;10.80;;
5460;SDS011;2753;49.196;8.286;2022-10-20T02:23:23;16.17;;;9.87;;
5460;SDS011;2753;49.196;8.286;2022-10-20T02:25:50;14.30;;;10.53;;
5460;SDS011;2753;49.196;8.286;2022-10-20T02:28:17;16.97;;;10.40;;
5460;SDS011;2753;49.196;8.286;2022-10-20T02:30:45;15.97;;;10.37;;
5460;SDS011;2753;49.196;8.286;2022-10-20T02:33:12;17.40;;;10.43;;
5460;SDS011;2753;49.196;8.286;2022-10-20T02:35:41;17.80;;;9.80;;
5460;SDS011;2753;49.196;8.286;2022-10-20T02:38:20;16.43;;;10.40;;
5460;SDS011;2753;49.196;8.286;2022-10-20T02:40:45;21.87;;;10.70;;
5460;SDS011;2753;49.196;8.286;2022-10-20T02:43:11;15.83;;;10.70;;
5460;SDS011;2753;49.196;8.286;2022-10-20T02:45:37;16.30;;;9.80;;
5460;SDS011;2753;49.196;8.286;2022-10-20T02:48:03;12.00;;;9.87;;
5460;SDS011;2753;49.196;8.286;2022-10-20T02:50:29;18.10;;;9.73;;
5460;SDS011;2753;49.196;8.286;2022-10-20T02:52:54;16.83;;;11.30;;
5460;SDS011;2753;49.196;8.286;2022-10-20T02:55:20;17.87;;;10.90;;
5460;SDS011;2753;49.196;8.286;2022-10-20T02:57:46;17.10;;;9.87;;
5460;SDS011;2753;49.196;8.286;2022-10-20T03:00:12;15.47;;;10.30;;
5460;SDS011;2753;49.196;8.286;2022-10-20T03:02:38;14.77;;;10.53;;
5460;SDS011;2753;49.196;8.286;2022-10-20T03:05:04;22.70;;;10.60;;
5460;SDS011;2753;49.196;8.286;2022-10-20T03:07:29;19.60;;;11.33;;
5460;SDS011;2753;49.196;8.286;2022-10-20T03:09:55;17.00;;;10.37;;
5460;SDS011;2753;49.196;8.286;2022-10-20T03:12:21;19.23;;;10.90;;
5460;SDS011;2753;49.196;8.286;2022-10-20T03:14:46;19.43;;;10.43;;
5460;SDS011;2753;49.196;8.286;2022-10-20T03:17:12;19.57;;;9.60;;
5460;SDS011;2753;49.196;8.286;2022-10-20T03:19:38;20.23;;;10.17;;
5460;SDS011;2753;49.196;8.286;2022-10-20T03:22:05;37.33;;;11.30;;
5460;SDS011;2753;49.196;8.286;2022-10-20T03:24:31;17.50;;;10.30;;
5460;SDS011;2753;49.196;8.286;2022-10-20T03:26:56;20.87;;;10.83;;
5460;SDS011;2753;49.196;8.286;2022-10-20T03:29:22;21.70;;;11.07;;
5460;SDS011;2753;49.196;8.286;2022-10-20T03:31:48;17.10;;;10.43;;
5460;SDS011;2753;49.196;8.286;2022-10-20T03:34:13;18.47;;;10.90;;
5460;SDS011;2753;49.196;8.286;2022-10-20T03:36:39;20.47;;;12.33;;
5460;SDS011;2753;49.196;8.286;2022-10-20T03:39:05;20.23;;;10.80;;
5460;SDS011;2753;49.196;8.286;2022-10-20T03:41:30;17.50;;;11.30;;
5460;SDS011;2753;49.196;8.286;2022-10-20T03:43:56;12.47;;;9.90;;
5460;SDS011;2753;49.196;8.286;2022-10-20T03:46:22;19.03;;;10.63;;
5460;SDS011;2753;49.196;8.286;2022-10-20T03:48:48;18.63;;;10.90;;
5460;SDS011;2753;49.196;8.286;2022-10-20T03:51:13;21.80;;;11.03;;
5460;SDS011;2753;49.196;8.286;2022-10-20T03:53:39;20.00;;;10.83;;
5460;SDS011;2753;49.196;8.286;2022-10-20T03:56:05;19.77;;;10.87;;
5460;SDS011;2753;49.196;8.286;2022-10-20T03:58:32;25.87;;;12.30;;
5460;SDS011;2753;49.196;8.286;2022-10-20T04:00:58;16.47;;;10.97;;
5460;SDS011;2753;49.196;8.286;2022-10-20T04:03:24;23.10;;;11.70;;
5460;SDS011;2753;49.196;8.286;2022-10-20T04:05:49;22.03;;;11.77;;
5460;SDS011;2753;49.196;8.286;2022-10-20T04:08:15;24.13;;;11.70;;
5460;SDS011;2753;49.196;8.286;2022-10-20T04:10:40;21.73;;;11.10;;
5460;SDS011;2753;49.196;8.286;2022-10-20T04:13:06;21.17;;;10.93;;
5460;SDS011;2753;49.196;8.286;2022-10-20T04:15:32;17.17;;;11.10;;
5460;SDS011;2753;49.196;8.286;2022-10-20T04:17:57;20.73;;;11.83;;
5460;SDS011;2753;49.196;8.286;2022-10-20T04:20:23;15.83;;;9.73;;
5460;SDS011;2753;49.196;8.286;2022-10-20T04:22:49;17.80;;;11.07;;
5460;SDS011;2753;49.196;8.286;2022-10-20T04:25:14;24.37;;;10.77;;
5460;SDS011;2753;49.196;8.286;2022-10-20T04:27:40;17.93;;;11.00;;
5460;SDS011;2753;49.196;8.286;2022-10-20T04:30:06;20.93;;;10.80;;
5460;SDS011;2753;49.196;8.286;2022-10-20T04:32:33;15.93;;;11.77;;
5460;SDS011;2753;49.196;8.286;2022-10-20T04:34:58;17.60;;;12.33;;
5460;SDS011;2753;49.196;8.286;2022-10-20T04:37:24;26.07;;;13.50;;
5460;SDS011;2753;49.196;8.286;2022-10-20T04:39:50;16.50;;;12.37;;
5460;SDS011;2753;49.196;8.286;2022-10-20T04:42:16;16.10;;;11.80;;
5460;SDS011;2753;49.196;8.286;2022-10-20T04:44:42;19.00;;;12.27;;
5460;SDS011;2753;49.196;8.286;2022-10-20T04:47:08;17.77;;;11.60;;
5460;SDS011;2753;49.196;8.286;2022-10-20T04:49:34;16.63;;;11.17;;
5460;SDS011;2753;49.196;8.286;2022-10-20T04:52:01;14.13;;;10.80;;
5460;SDS011;2753;49.196;8.286;2022-10-20T04:54:27;21.70;;;11.03;;
5460;SDS011;2753;49.196;8.286;2022-10-20T04:56:53;19.47;;;11.50;;
5460;SDS011;2753;49.196;8.286;2022-10-20T04:59:19;23.30;;;11.60;;
5460;SDS011;2753;49.196;8.286;2022-10-20T05:01:45;21.63;;;10.43;;
5460;SDS011;2753;49.196;8.286;2022-10-20T05:04:11;25.70;;;11.27;;
5460;SDS011;2753;49.196;8.286;2022-10-20T05:06:37;15.70;;;10.83;;
5460;SDS011;2753;49.196;8.286;2022-10-20T05:09:03;15.07;;;9.70;;
5460;SDS011;2753;49.196;8.286;2022-10-20T05:11:32;23.83;;;12.43;;
5460;SDS011;2753;49.196;8.286;2022-10-20T05:13:59;18.33;;;11.30;;
5460;SDS011;2753;49.196;8.286;2022-10-20T05:16:25;30.00;;;11.77;;
5460;SDS011;2753;49.196;8.286;2022-10-20T05:18:52;21.13;;;11.00;;
5460;SDS011;2753;49.196;8.286;2022-10-20T05:21:21;17.47;;;11.50;;
5460;SDS011;2753;49.196;8.286;2022-10-20T05:23:53;24.40;;;10.80;;
5460;SDS011;2753;49.196;8.286;2022-10-20T05:26:23;21.23;;;11.97;;
5460;SDS011;2753;49.196;8.286;2022-10-20T05:28:49;17.17;;;11.33;;
5460;SDS011;2753;49.196;8.286;2022-10-20T05:31:16;22.93;;;10.70;;
5460;SDS011;2753;49.196;8.286;2022-10-20T05:33:45;16.10;;;11.10;;
5460;SDS011;2753;49.196;8.286;2022-10-20T05:36:12;20.03;;;11.50;;
5460;SDS011;2753;49.196;8.286;2022-10-20T05:38:39;23.27;;;12.43;;
5460;SDS011;2753;49.196;8.286;2022-10-20T05:41:06;22.97;;;12.67;;
5460;SDS011;2753;49.196;8.286;2022-10-20T05:43:35;19.67;;;11.50;;
5460;SDS011;2753;49.196;8.286;2022-10-20T05:46:01;18.90;;;11.23;;
5460;SDS011;2753;49.196;8.286;2022-10-20T05:48:27;21.63;;;12.90;;
5460;SDS011;2753;49.196;8.286;2022-10-20T05:50:53;22.23;;;12.03;;
5460;SDS011;2753;49.196;8.286;2022-10-20T05:53:18;17.60;;;12.00;;
5460;SDS011;2753;49.196;8.286;2022-10-20T05:55:44;24.37;;;10.33;;
5460;SDS011;2753;49.196;8.286;2022-10-20T05:58:10;14.03;;;10.90;;
5460;SDS011;2753;49.196;8.286;2022-10-20T06:00:35;16.93;;;10.77;;
5460;SDS011;2753;49.196;8.286;2022-10-20T06:03:06;34.60;;;11.10;;
5460;SDS011;2753;49.196;8.286;2022-10-20T06:05:33;20.57;;;11.70;;
5460;SDS011;2753;49.196;8.286;2022-10-20T06:07:58;16.13;;;10.50;;
5460;SDS011;2753;49.196;8.286;2022-10-20T06:10:24;16.73;;;10.80;;
5460;SDS011;2753;49.196;8.286;2022-10-20T06:12:50;21.23;;;11.57;;
5460;SDS011;2753;49.196;8.286;2022-10-20T06:15:15;18.93;;;11.97;;
5460;SDS011;2753;49.196;8.286;2022-10-20T06:17:41;16.93;;;12.03;;
5460;SDS011;2753;49.196;8.286;2022-10-20T06:20:07;16.73;;;11.63;;
5460;SDS011;2753;49.196;8.286;2022-10-20T06:22:33;19.40;;;12.10;;
5460;SDS011;2753;49.196;8.286;2022-10-20T06:24:58;18.90;;;11.60;;
5460;SDS011;2753;49.196;8.286;2022-10-20T06:27:24;20.20;;;11.33;;
5460;SDS011;2753;49.196;8.286;2022-10-20T06:29:50;17.60;;;10.43;;
5460;SDS011;2753;49.196;8.286;2022-10-20T06:32:16;21.23;;;11.07;;
5460;SDS011;2753;49.196;8.286;2022-10-20T06:34:42;25.77;;;12.27;;
5460;SDS011;2753;49.196;8.286;2022-10-20T06:37:08;17.20;;;10.93;;
5460;SDS011;2753;49.196;8.286;2022-10-20T06:39:34;19.97;;;10.67;;
5460;SDS011;2753;49.196;8.286;2022-10-20T06:42:00;15.87;;;10.20;;
5460;SDS011;2753;49.196;8.286;2022-10-20T06:44:26;20.17;;;10.90;;
5460;SDS011;2753;49.196;8.286;2022-10-20T06:46:52;19.10;;;11.37;;
5460;SDS011;2753;49.196;8.286;2022-10-20T06:49:18;20.03;;;10.67;;
5460;SDS011;2753;49.196;8.286;2022-10-20T06:51:45;24.43;;;11.57;;
5460;SDS011;2753;49.196;8.286;2022-10-20T06:54:10;26.13;;;11.90;;
5460;SDS011;2753;49.196;8.286;2022-10-20T06:56:36;17.37;;;10.87;;
5460;SDS011;2753;49.196;8.286;2022-10-20T06:59:03;18.47;;;11.53;;
5460;SDS011;2753;49.196;8.286;2022-10-20T07:01:33;26.23;;;11.70;;
5460;SDS011;2753;49.196;8.286;2022-10-20T07:04:01;17.90;;;11.13;;
5460;SDS011;2753;49.196;8.286;2022-10-20T07:08:59;21.80;;;11.87;;
5460;SDS011;2753;49.196;8.286;2022-10-20T07:11:28;20.80;;;12.40;;
5460;SDS011;2753;49.196;8.286;2022-10-20T07:13:56;23.40;;;11.93;;
5460;SDS011;2753;49.196;8.286;2022-10-20T07:16:23;24.50;;;10.63;;
5460;SDS011;2753;49.196;8.286;2022-10-20T07:18:51;17.70;;;11.57;;
5460;SDS011;2753;49.196;8.286;2022-10-20T07:21:18;17.47;;;12.57;;
5460;SDS011;2753;49.196;8.286;2022-10-20T07:23:46;30.43;;;13.27;;
5460;SDS011;2753;49.196;8.286;2022-10-20T07:26:17;20.03;;;11.93;;
5460;SDS011;2753;49.196;8.286;2022-10-20T07:28:49;19.80;;;13.40;;
5460;SDS011;2753;49.196;8.286;2022-10-20T07:31:17;14.40;;;10.90;;
5460;SDS011;2753;49.196;8.286;2022-10-20T07:33:47;21.47;;;12.30;;
5460;SDS011;2753;49.196;8.286;2022-10-20T07:36:14;15.87;;;11.30;;
5460;SDS011;2753;49.196;8.286;2022-10-20T07:38:44;18.40;;;12.20;;
5460;SDS011;2753;49.196;8.286;2022-10-20T07:41:11;19.43;;;11.87;;
5460;SDS011;2753;49.196;8.286;2022-10-20T07:43:37;20.90;;;11.40;;
5460;SDS011;2753;49.196;8.286;2022-10-20T07:46:04;19.07;;;10.60;;
5460;SDS011;2753;49.196;8.286;2022-10-20T07:48:30;18.30;;;12.07;;
5460;SDS011;2753;49.196;8.286;2022-10-20T07:53:38;25.20;;;12.10;;
5460;SDS011;2753;49.196;8.286;2022-10-20T07:56:04;18.93;;;11.00;;
5460;SDS011;2753;49.196;8.286;2022-10-20T07:58:30;20.10;;;13.30;;
5460;SDS011;2753;49.196;8.286;2022-10-20T08:00:55;16.60;;;11.87;;
5460;SDS011;2753;49.196;8.286;2022-10-20T08:03:21;18.70;;;12.83;;
5460;SDS011;2753;49.196;8.286;2022-10-20T08:05:46;20.90;;;13.47;;
5460;SDS011;2753;49.196;8.286;2022-10-20T08:08:12;13.90;;;11.60;;
5460;SDS011;2753;49.196;8.286;2022-10-20T08:10:38;16.93;;;11.70;;
5460;SDS011;2753;49.196;8.286;2022-10-20T08:13:03;17.47;;;11.70;;
5460;SDS011;2753;49.196;8.286;2022-10-20T08:15:29;24.53;;;11.67;;
5460;SDS011;2753;49.196;8.286;2022-10-20T08:17:55;30.23;;;12.90;;
5460;SDS011;2753;49.196;8.286;2022-10-20T08:20:21;21.80;;;12.83;;
5460;SDS011;2753;49.196;8.286;2022-10-20T08:22:46;24.53;;;12.37;;
5460;SDS011;2753;49.196;8.286;2022-10-20T08:25:15;26.80;;;11.93;;
5460;SDS011;2753;49.196;8.286;2022-10-20T08:27:41;23.83;;;11.93;;
5460;SDS011;2753;49.196;8.286;2022-10-20T08:30:07;23.50;;;12.27;;
5460;SDS011;2753;49.196;8.286;2022-10-20T08:32:33;18.50;;;12.37;;
5460;SDS011;2753;49.196;8.286;2022-10-20T08:34:59;19.20;;;11.70;;
5460;SDS011;2753;49.196;8.286;2022-10-20T08:37:25;15.67;;;10.70;;
5460;SDS011;2753;49.196;8.286;2022-10-20T08:39:50;26.23;;;12.53;;
5460;SDS011;2753;49.196;8.286;2022-10-20T08:42:16;21.00;;;12.43;;
5460;SDS011;2753;49.196;8.286;2022-10-20T08:44:43;20.57;;;10.57;;
5460;SDS011;2753;49.196;8.286;2022-10-20T08:47:30;29.80;;;14.80;;
5460;SDS011;2753;49.196;8.286;2022-10-20T08:49:59;25.03;;;11.90;;
5460;SDS011;2753;49.196;8.286;2022-10-20T08:52:26;27.43;;;11.50;;
5460;SDS011;2753;49.196;8.286;2022-10-20T08:54:52;17.23;;;11.77;;
5460;SDS011;2753;49.196;8.286;2022-10-20T08:59:49;30.50;;;12.30;;
5460;SDS011;2753;49.196;8.286;2022-10-20T09:02:17;22.90;;;11.73;;
5460;SDS011;2753;49.196;8.286;2022-10-20T09:04:54;16.07;;;11.20;;
5460;SDS011;2753;49.196;8.286;2022-10-20T09:07:24;20.20;;;10.87;;
5460;SDS011;2753;49.196;8.286;2022-10-20T09:09:56;19.40;;;11.23;;
5460;SDS011;2753;49.196;8.286;2022-10-20T09:12:28;14.10;;;10.40;;
5460;SDS011;2753;49.196;8.286;2022-10-20T09:14:56;16.20;;;10.80;;
5460;SDS011;2753;49.196;8.286;2022-10-20T09:17:22;16.80;;;9.93;;
5460;SDS011;2753;49.196;8.286;2022-10-20T09:19:50;23.20;;;10.23;;
5460;SDS011;2753;49.196;8.286;2022-10-20T09:22:19;19.27;;;11.43;;
5460;SDS011;2753;49.196;8.286;2022-10-20T09:24:46;23.13;;;10.50;;
5460;SDS011;2753;49.196;8.286;2022-10-20T09:27:33;18.17;;;11.90;;
5460;SDS011;2753;49.196;8.286;2022-10-20T09:32:53;18.33;;;10.43;;
5460;SDS011;2753;49.196;8.286;2022-10-20T09:35:20;17.67;;;10.27;;
5460;SDS011;2753;49.196;8.286;2022-10-20T09:37:53;14.10;;;10.77;;
5460;SDS011;2753;49.196;8.286;2022-10-20T09:40:20;17.63;;;10.23;;
5460;SDS011;2753;49.196;8.286;2022-10-20T09:42:49;16.07;;;11.73;;
5460;SDS011;2753;49.196;8.286;2022-10-20T09:45:36;14.90;;;10.90;;
5460;SDS011;2753;49.196;8.286;2022-10-20T09:48:33;31.90;;;11.53;;
5460;SDS011;2753;49.196;8.286;2022-10-20T09:51:02;14.83;;;10.37;;
5460;SDS011;2753;49.196;8.286;2022-10-20T09:53:32;21.80;;;11.80;;
5460;SDS011;2753;49.196;8.286;2022-10-20T09:56:21;22.60;;;9.97;;
5460;SDS011;2753;49.196;8.286;2022-10-20T09:58:49;13.87;;;10.27;;
5460;SDS011;2753;49.196;8.286;2022-10-20T10:01:15;14.97;;;10.87;;
5460;SDS011;2753;49.196;8.286;2022-10-20T10:03:43;15.93;;;10.07;;
5460;SDS011;2753;49.196;8.286;2022-10-20T10:11:55;26.37;;;11.53;;
5460;SDS011;2753;49.196;8.286;2022-10-20T10:14:24;13.27;;;9.83;;
5460;SDS011;2753;49.196;8.286;2022-10-20T10:16:50;15.77;;;10.30;;
5460;SDS011;2753;49.196;8.286;2022-10-20T10:19:17;16.83;;;10.23;;
5460;SDS011;2753;49.196;8.286;2022-10-20T10:21:56;12.83;;;10.70;;
5460;SDS011;2753;49.196;8.286;2022-10-20T10:27:23;15.70;;;9.63;;
5460;SDS011;2753;49.196;8.286;2022-10-20T10:29:51;27.50;;;11.80;;
5460;SDS011;2753;49.196;8.286;2022-10-20T10:32:42;14.07;;;9.77;;
5460;SDS011;2753;49.196;8.286;2022-10-20T10:35:11;14.07;;;9.90;;
5460;SDS011;2753;49.196;8.286;2022-10-20T10:37:48;16.20;;;8.97;;
5460;SDS011;2753;49.196;8.286;2022-10-20T10:40:15;16.90;;;11.03;;
5460;SDS011;2753;49.196;8.286;2022-10-20T10:45:51;18.93;;;11.17;;
5460;SDS011;2753;49.196;8.286;2022-10-20T10:56:55;19.00;;;11.70;;
5460;SDS011;2753;49.196;8.286;2022-10-20T11:10:37;14.70;;;10.50;;
5460;SDS011;2753;49.196;8.286;2022-10-20T11:16:32;22.83;;;12.60;;
5460;SDS011;2753;49.196;8.286;2022-10-20T11:19:02;18.03;;;9.80;;
5460;SDS011;2753;49.196;8.286;2022-10-20T11:26:51;18.73;;;11.23;;
5460;SDS011;2753;49.196;8.286;2022-10-20T11:29:30;19.80;;;11.87;;
5460;SDS011;2753;49.196;8.286;2022-10-20T11:34:27;22.37;;;11.43;;
5460;SDS011;2753;49.196;8.286;2022-10-20T11:39:44;17.30;;;10.47;;
5460;SDS011;2753;49.196;8.286;2022-10-20T11:45:12;22.30;;;12.30;;
5460;SDS011;2753;49.196;8.286;2022-10-20T11:47:55;28.07;;;12.13;;
5460;SDS011;2753;49.196;8.286;2022-10-20T11:50:33;18.07;;;10.77;;
5460;SDS011;2753;49.196;8.286;2022-10-20T11:56:04;22.27;;;12.10;;
5460;SDS011;2753;49.196;8.286;2022-10-20T12:02:17;16.50;;;10.40;;
5460;SDS011;2753;49.196;8.286;2022-10-20T12:16:00;18.50;;;13.00;;
5460;SDS011;2753;49.196;8.286;2022-10-20T12:18:27;19.90;;;11.53;;
5460;SDS011;2753;49.196;8.286;2022-10-20T12:20:55;25.33;;;11.60;;
5460;SDS011;2753;49.196;8.286;2022-10-20T12:28:58;19.17;;;11.23;;
5460;SDS011;2753;49.196;8.286;2022-10-20T12:31:36;25.43;;;10.43;;
5460;SDS011;2753;49.196;8.286;2022-10-20T12:34:37;24.90;;;10.90;;
5460;SDS011;2753;49.196;8.286;2022-10-20T12:37:07;28.27;;;12.10;;
5460;SDS011;2753;49.196;8.286;2022-10-20T12:39:39;17.87;;;11.57;;
5460;SDS011;2753;49.196;8.286;2022-10-20T12:42:05;18.00;;;10.30;;
5460;SDS011;2753;49.196;8.286;2022-10-20T12:44:40;16.20;;;10.40;;
5460;SDS011;2753;49.196;8.286;2022-10-20T12:47:08;16.17;;;12.00;;
5460;SDS011;2753;49.196;8.286;2022-10-20T12:49:44;24.63;;;11.67;;
5460;SDS011;2753;49.196;8.286;2022-10-20T12:52:20;18.27;;;10.90;;
5460;SDS011;2753;49.196;8.286;2022-10-20T12:54:59;16.33;;;9.47;;
5460;SDS011;2753;49.196;8.286;2022-10-20T12:57:30;20.40;;;11.63;;
5460;SDS011;2753;49.196;8.286;2022-10-20T13:00:06;18.50;;;10.93;;
5460;SDS011;2753;49.196;8.286;2022-10-20T13:10:44;16.60;;;10.63;;
5460;SDS011;2753;49.196;8.286;2022-10-20T13:23:17;18.60;;;10.67;;
5460;SDS011;2753;49.196;8.286;2022-10-20T13:26:02;18.70;;;10.47;;
5460;SDS011;2753;49.196;8.286;2022-10-20T13:28:46;12.83;;;9.60;;
5460;SDS011;2753;49.196;8.286;2022-10-20T13:36:47;21.80;;;9.13;;
5460;SDS011;2753;49.196;8.286;2022-10-20T13:52:55;18.90;;;11.80;;
5460;SDS011;2753;49.196;8.286;2022-10-20T13:55:30;16.13;;;10.37;;
5460;SDS011;2753;49.196;8.286;2022-10-20T13:59:04;17.80;;;11.67;;
5460;SDS011;2753;49.196;8.286;2022-10-20T14:01:54;14.87;;;11.13;;
5460;SDS011;2753;49.196;8.286;2022-10-20T14:04:24;21.87;;;12.37;;
5460;SDS011;2753;49.196;8.286;2022-10-20T14:06:54;16.87;;;11.73;;
5460;SDS011;2753;49.196;8.286;2022-10-20T14:09:21;21.53;;;12.03;;
5460;SDS011;2753;49.196;8.286;2022-10-20T14:11:49;18.90;;;10.80;;
5460;SDS011;2753;49.196;8.286;2022-10-20T14:14:23;21.80;;;11.80;;
5460;SDS011;2753;49.196;8.286;2022-10-20T14:17:00;18.03;;;11.57;;
5460;SDS011;2753;49.196;8.286;2022-10-20T14:19:29;14.73;;;10.47;;
5460;SDS011;2753;49.196;8.286;2022-10-20T14:21:58;20.40;;;10.60;;
5460;SDS011;2753;49.196;8.286;2022-10-20T14:24:41;19.83;;;11.30;;
5460;SDS011;2753;49.196;8.286;2022-10-20T14:27:13;15.80;;;12.17;;
5460;SDS011;2753;49.196;8.286;2022-10-20T14:29:48;32.30;;;12.13;;
5460;SDS011;2753;49.196;8.286;2022-10-20T14:32:19;17.57;;;12.20;;
5460;SDS011;2753;49.196;8.286;2022-10-20T14:34:55;24.13;;;11.97;;
5460;SDS011;2753;49.196;8.286;2022-10-20T14:37:35;34.13;;;14.93;;
5460;SDS011;2753;49.196;8.286;2022-10-20T14:40:05;26.27;;;13.07;;
5460;SDS011;2753;49.196;8.286;2022-10-20T14:42:42;20.90;;;11.03;;
5460;SDS011;2753;49.196;8.286;2022-10-20T14:45:15;24.43;;;11.13;;
5460;SDS011;2753;49.196;8.286;2022-10-20T14:47:49;14.60;;;9.13;;
5460;SDS011;2753;49.196;8.286;2022-10-20T14:50:21;14.03;;;9.33;;
5460;SDS011;2753;49.196;8.286;2022-10-20T14:52:49;17.10;;;10.20;;
5460;SDS011;2753;49.196;8.286;2022-10-20T14:55:32;19.53;;;9.43;;
5460;SDS011;2753;49.196;8.286;2022-10-20T14:57:59;19.80;;;10.07;;
5460;SDS011;2753;49.196;8.286;2022-10-20T15:02:59;13.37;;;9.37;;
5460;SDS011;2753;49.196;8.286;2022-10-20T15:07:56;17.80;;;10.00;;
5460;SDS011;2753;49.196;8.286;2022-10-20T15:10:31;24.07;;;10.07;;
5460;SDS011;2753;49.196;8.286;2022-10-20T15:12:57;17.60;;;10.13;;
5460;SDS011;2753;49.196;8.286;2022-10-20T15:15:23;26.80;;;10.93;;
5460;SDS011;2753;49.196;8.286;2022-10-20T15:20:42;18.83;;;10.90;;
5460;SDS011;2753;49.196;8.286;2022-10-20T15:23:13;22.20;;;10.70;;
5460;SDS011;2753;49.196;8.286;2022-10-20T15:28:49;23.70;;;14.17;;
5460;SDS011;2753;49.196;8.286;2022-10-20T15:30:59;22.50;;;12.67;;
5460;SDS011;2753;49.196;8.286;2022-10-20T15:33:26;15.97;;;11.17;;
5460;SDS011;2753;49.196;8.286;2022-10-20T15:35:52;20.50;;;13.20;;
5460;SDS011;2753;49.196;8.286;2022-10-20T15:38:18;21.93;;;13.47;;
5460;SDS011;2753;49.196;8.286;2022-10-20T15:40:45;22.00;;;12.90;;
5460;SDS011;2753;49.196;8.286;2022-10-20T15:43:12;19.40;;;12.67;;
5460;SDS011;2753;49.196;8.286;2022-10-20T15:45:43;18.33;;;11.60;;
5460;SDS011;2753;49.196;8.286;2022-10-20T15:48:19;20.10;;;12.30;;
5460;SDS011;2753;49.196;8.286;2022-10-20T15:50:45;36.33;;;15.20;;
5460;SDS011;2753;49.196;8.286;2022-10-20T15:53:11;33.53;;;17.47;;
5460;SDS011;2753;49.196;8.286;2022-10-20T15:55:38;30.30;;;17.00;;
5460;SDS011;2753;49.196;8.286;2022-10-20T15:58:06;43.13;;;23.57;;
5460;SDS011;2753;49.196;8.286;2022-10-20T16:00:32;49.93;;;24.67;;
5460;SDS011;2753;49.196;8.286;2022-10-20T16:02:58;32.90;;;17.03;;
5460;SDS011;2753;49.196;8.286;2022-10-20T16:05:24;20.03;;;13.50;;
5460;SDS011;2753;49.196;8.286;2022-10-20T16:07:50;18.10;;;12.90;;
5460;SDS011;2753;49.196;8.286;2022-10-20T16:10:18;18.73;;;12.80;;
5460;SDS011;2753;49.196;8.286;2022-10-20T16:12:48;15.57;;;12.17;;
5460;SDS011;2753;49.196;8.286;2022-10-20T16:15:15;22.50;;;12.27;;
5460;SDS011;2753;49.196;8.286;2022-10-20T16:17:41;21.30;;;12.90;;
5460;SDS011;2753;49.196;8.286;2022-10-20T16:20:07;19.60;;;12.47;;
5460;SDS011;2753;49.196;8.286;2022-10-20T16:22:33;18.00;;;13.20;;
5460;SDS011;2753;49.196;8.286;2022-10-20T16:24:59;25.53;;;16.90;;
5460;SDS011;2753;49.196;8.286;2022-10-20T16:27:29;26.63;;;15.07;;
5460;SDS011;2753;49.196;8.286;2022-10-20T16:29:56;24.43;;;16.37;;
5460;SDS011;2753;49.196;8.286;2022-10-20T16:32:22;25.57;;;15.43;;
5460;SDS011;2753;49.196;8.286;2022-10-20T16:34:47;27.43;;;16.00;;
5460;SDS011;2753;49.196;8.286;2022-10-20T16:37:13;36.50;;;19.50;;
5460;SDS011;2753;49.196;8.286;2022-10-20T16:39:39;26.93;;;17.73;;
5460;SDS011;2753;49.196;8.286;2022-10-20T16:42:04;29.27;;;19.27;;
5460;SDS011;2753;49.196;8.286;2022-10-20T16:44:30;29.60;;;19.37;;
5460;SDS011;2753;49.196;8.286;2022-10-20T16:46:56;33.37;;;19.30;;
5460;SDS011;2753;49.196;8.286;2022-10-20T16:49:22;23.60;;;17.43;;
5460;SDS011;2753;49.196;8.286;2022-10-20T16:51:49;25.00;;;17.20;;
5460;SDS011;2753;49.196;8.286;2022-10-20T16:54:15;25.90;;;16.20;;
5460;SDS011;2753;49.196;8.286;2022-10-20T16:56:41;28.90;;;15.37;;
5460;SDS011;2753;49.196;8.286;2022-10-20T16:59:06;33.10;;;15.53;;
5460;SDS011;2753;49.196;8.286;2022-10-20T17:01:32;26.33;;;15.00;;
5460;SDS011;2753;49.196;8.286;2022-10-20T17:03:58;20.40;;;15.37;;
5460;SDS011;2753;49.196;8.286;2022-10-20T17:06:24;27.27;;;14.63;;
5460;SDS011;2753;49.196;8.286;2022-10-20T17:08:51;19.70;;;14.07;;
5460;SDS011;2753;49.196;8.286;2022-10-20T17:11:18;30.03;;;14.03;;
5460;SDS011;2753;49.196;8.286;2022-10-20T17:13:49;19.10;;;13.40;;
5460;SDS011;2753;49.196;8.286;2022-10-20T17:16:17;26.03;;;16.10;;
5460;SDS011;2753;49.196;8.286;2022-10-20T17:18:45;29.90;;;18.13;;
5460;SDS011;2753;49.196;8.286;2022-10-20T17:21:11;28.30;;;18.30;;
5460;SDS011;2753;49.196;8.286;2022-10-20T17:23:39;29.40;;;19.53;;
5460;SDS011;2753;49.196;8.286;2022-10-20T17:26:06;37.73;;;20.10;;
5460;SDS011;2753;49.196;8.286;2022-10-20T17:28:34;32.60;;;20.67;;
5460;SDS011;2753;49.196;8.286;2022-10-20T17:31:01;38.70;;;22.10;;
5460;SDS011;2753;49.196;8.286;2022-10-20T17:33:30;35.00;;;22.17;;
5460;SDS011;2753;49.196;8.286;2022-10-20T17:35:56;52.17;;;28.90;;
5460;SDS011;2753;49.196;8.286;2022-10-20T17:38:23;46.63;;;26.53;;
5460;SDS011;2753;49.196;8.286;2022-10-20T17:40:50;64.50;;;38.63;;